sensor_id;sensor_type;location;lat;lon;timestamp;pressure;altitude;pressure_sealevel;temperature;humidity
62164;BME280;48149;51.132;7.178;2023-04-15T00:01:57;97821.81;;;18.96;34.46
62164;BME280;48149;51.132;7.178;2023-04-15T00:04:22;97814.28;;;19.22;33.93
62164;BME280;48149;51.132;7.178;2023-04-15T00:06:51;97814.91;;;19.13;34.78
62164;BME280;48149;51.132;7.178;2023-04-15T00:09:19;97806.59;;;18.40;35.08
62164;BME280;48149;51.132;7.178;2023-04-15T00:11:44;97809.16;;;18.69;35.13
62164;BME280;48149;51.132;7.178;2023-04-15T00:14:10;97805.97;;;19.79;34.68
62164;BME280;48149;51.132;7.178;2023-04-15T00:16:36;97813.03;;;19.33;33.60
62164;BME280;48149;51.132;7.178;2023-04-15T00:19:01;97813.34;;;18.51;34.82
62164;BME280;48149;51.132;7.178;2023-04-15T00:21:26;97803.72;;;19.16;35.05
62164;BME280;48149;51.132;7.178;2023-04-15T00:23:53;97808.63;;;18.25;35.84
62164;BME280;48149;51.132;7.178;2023-04-15T00:26:18;97810.28;;;18.63;36.18
62164;BME280;48149;51.132;7.178;2023-04-15T00:28:43;97810.94;;;18.55;35.85
62164;BME280;48149;51.132;7.178;2023-04-15T00:31:09;97807.59;;;18.21;36.04
62164;BME280;48149;51.132;7.178;2023-04-15T00:33:34;97813.44;;;18.18;36.07
62164;BME280;48149;51.132;7.178;2023-04-15T00:36:00;97803.06;;;18.45;36.19
62164;BME280;48149;51.132;7.178;2023-04-15T00:38:27;97806.72;;;18.25;36.29
62164;BME280;48149;51.132;7.178;2023-04-15T00:40:52;97803.16;;;19.19;35.67
62164;BME280;48149;51.132;7.178;2023-04-15T00:43:17;97800.84;;;18.94;36.17
62164;BME280;48149;51.132;7.178;2023-04-15T00:45:43;97802.00;;;18.70;36.36
62164;BME280;48149;51.132;7.178;2023-04-15T00:48:08;97804.28;;;18.76;36.14
62164;BME280;48149;51.132;7.178;2023-04-15T00:50:34;97803.03;;;18.26;36.35
62164;BME280;48149;51.132;7.178;2023-04-15T00:52:59;97793.34;;;19.01;35.42
62164;BME280;48149;51.132;7.178;2023-04-15T00:55:25;97801.50;;;19.24;35.32
62164;BME280;48149;51.132;7.178;2023-04-15T00:57:50;97803.81;;;19.49;35.76
62164;BME280;48149;51.132;7.178;2023-04-15T01:00:16;97806.28;;;18.42;36.33
62164;BME280;48149;51.132;7.178;2023-04-15T01:02:42;97805.09;;;18.77;35.50
62164;BME280;48149;51.132;7.178;2023-04-15T01:05:07;97800.06;;;19.50;35.58
62164;BME280;48149;51.132;7.178;2023-04-15T01:07:33;97798.00;;;18.48;35.84
62164;BME280;48149;51.132;7.178;2023-04-15T01:09:58;97806.16;;;18.76;36.24
62164;BME280;48149;51.132;7.178;2023-04-15T01:12:24;97797.97;;;18.72;35.88
62164;BME280;48149;51.132;7.178;2023-04-15T01:14:50;97801.81;;;19.41;35.20
62164;BME280;48149;51.132;7.178;2023-04-15T01:17:16;97795.72;;;18.84;36.13
62164;BME280;48149;51.132;7.178;2023-04-15T01:19:41;97794.13;;;19.21;35.34
62164;BME280;48149;51.132;7.178;2023-04-15T01:22:06;97798.38;;;18.84;36.36
62164;BME280;48149;51.132;7.178;2023-04-15T01:24:32;97785.53;;;18.91;36.05
62164;BME280;48149;51.132;7.178;2023-04-15T01:26:58;97788.13;;;18.96;36.55
62164;BME280;48149;51.132;7.178;2023-04-15T01:29:23;97788.84;;;19.02;36.22
62164;BME280;48149;51.132;7.178;2023-04-15T01:31:52;97792.06;;;17.85;37.82
62164;BME280;48149;51.132;7.178;2023-04-15T01:34:17;97793.38;;;18.11;37.21
62164;BME280;48149;51.132;7.178;2023-04-15T01:36:43;97789.59;;;18.41;37.68
62164;BME280;48149;51.132;7.178;2023-04-15T01:39:08;97794.91;;;18.65;37.01
62164;BME280;48149;51.132;7.178;2023-04-15T01:41:34;97793.69;;;18.76;37.30
62164;BME280;48149;51.132;7.178;2023-04-15T01:43:59;97788.53;;;18.85;36.55
62164;BME280;48149;51.132;7.178;2023-04-15T01:46:24;97792.03;;;19.17;36.26
62164;BME280;48149;51.132;7.178;2023-04-15T01:48:50;97794.94;;;18.84;36.83
62164;BME280;48149;51.132;7.178;2023-04-15T01:51:15;97798.16;;;18.81;36.88
62164;BME280;48149;51.132;7.178;2023-04-15T01:53:41;97791.91;;;19.28;36.67
62164;BME280;48149;51.132;7.178;2023-04-15T01:56:06;97800.16;;;18.89;37.13
62164;BME280;48149;51.132;7.178;2023-04-15T01:58:32;97791.19;;;19.22;37.43
62164;BME280;48149;51.132;7.178;2023-04-15T02:04:00;97786.13;;;19.58;35.64
62164;BME280;48149;51.132;7.178;2023-04-15T02:06:25;97790.09;;;18.67;36.75
62164;BME280;48149;51.132;7.178;2023-04-15T02:08:52;97785.59;;;19.05;36.19
62164;BME280;48149;51.132;7.178;2023-04-15T02:11:17;97789.53;;;19.07;36.80
62164;BME280;48149;51.132;7.178;2023-04-15T02:13:43;97792.63;;;19.14;36.55
62164;BME280;48149;51.132;7.178;2023-04-15T02:16:18;97788.47;;;19.08;36.65
62164;BME280;48149;51.132;7.178;2023-04-15T02:18:46;97798.28;;;18.71;37.11
62164;BME280;48149;51.132;7.178;2023-04-15T02:21:12;97791.66;;;19.61;36.38
62164;BME280;48149;51.132;7.178;2023-04-15T02:23:37;97797.56;;;18.84;36.49
62164;BME280;48149;51.132;7.178;2023-04-15T02:26:02;97796.88;;;19.15;36.17
62164;BME280;48149;51.132;7.178;2023-04-15T02:28:28;97800.56;;;18.58;37.11
62164;BME280;48149;51.132;7.178;2023-04-15T02:30:53;97801.94;;;19.31;36.34
62164;BME280;48149;51.132;7.178;2023-04-15T02:33:21;97800.72;;;18.67;37.35
62164;BME280;48149;51.132;7.178;2023-04-15T02:35:46;97802.16;;;19.53;36.48
62164;BME280;48149;51.132;7.178;2023-04-15T02:38:11;97803.09;;;18.87;36.71
62164;BME280;48149;51.132;7.178;2023-04-15T02:40:38;97808.16;;;19.91;36.07
62164;BME280;48149;51.132;7.178;2023-04-15T02:43:03;97812.84;;;19.80;36.09
62164;BME280;48149;51.132;7.178;2023-04-15T02:45:30;97816.44;;;19.57;36.21
62164;BME280;48149;51.132;7.178;2023-04-15T02:47:56;97823.09;;;18.98;37.22
62164;BME280;48149;51.132;7.178;2023-04-15T02:50:21;97814.28;;;19.03;36.78
62164;BME280;48149;51.132;7.178;2023-04-15T02:52:47;97825.25;;;18.96;36.80
62164;BME280;48149;51.132;7.178;2023-04-15T02:55:12;97817.94;;;19.26;37.48
62164;BME280;48149;51.132;7.178;2023-04-15T02:57:38;97819.81;;;19.06;37.87
62164;BME280;48149;51.132;7.178;2023-04-15T03:00:04;97815.09;;;19.03;37.40
62164;BME280;48149;51.132;7.178;2023-04-15T03:02:33;97821.75;;;18.58;38.31
62164;BME280;48149;51.132;7.178;2023-04-15T03:04:59;97816.50;;;20.44;35.38
62164;BME280;48149;51.132;7.178;2023-04-15T03:07:25;97820.22;;;20.43;36.05
62164;BME280;48149;51.132;7.178;2023-04-15T03:09:50;97812.63;;;19.26;36.37
62164;BME280;48149;51.132;7.178;2023-04-15T03:12:16;97824.72;;;18.94;36.67
62164;BME280;48149;51.132;7.178;2023-04-15T03:14:41;97819.59;;;19.22;36.50
62164;BME280;48149;51.132;7.178;2023-04-15T03:17:06;97818.22;;;19.05;36.71
62164;BME280;48149;51.132;7.178;2023-04-15T03:19:32;97823.59;;;19.56;37.06
62164;BME280;48149;51.132;7.178;2023-04-15T03:21:57;97821.47;;;19.40;36.96
62164;BME280;48149;51.132;7.178;2023-04-15T03:24:22;97817.09;;;19.11;37.00
62164;BME280;48149;51.132;7.178;2023-04-15T03:26:48;97823.44;;;19.48;36.51
62164;BME280;48149;51.132;7.178;2023-04-15T03:29:14;97823.25;;;19.77;35.78
62164;BME280;48149;51.132;7.178;2023-04-15T03:31:39;97830.56;;;19.85;36.07
62164;BME280;48149;51.132;7.178;2023-04-15T03:34:04;97825.09;;;20.08;35.68
62164;BME280;48149;51.132;7.178;2023-04-15T03:36:29;97824.97;;;19.54;36.65
62164;BME280;48149;51.132;7.178;2023-04-15T03:38:56;97829.16;;;19.74;35.45
62164;BME280;48149;51.132;7.178;2023-04-15T03:41:22;97830.50;;;20.03;35.43
62164;BME280;48149;51.132;7.178;2023-04-15T03:43:47;97838.72;;;20.34;34.39
62164;BME280;48149;51.132;7.178;2023-04-15T03:46:13;97840.47;;;19.47;35.98
62164;BME280;48149;51.132;7.178;2023-04-15T03:48:38;97834.41;;;19.92;35.59
62164;BME280;48149;51.132;7.178;2023-04-15T03:51:03;97833.69;;;20.19;35.00
62164;BME280;48149;51.132;7.178;2023-04-15T03:53:28;97835.50;;;20.05;34.63
62164;BME280;48149;51.132;7.178;2023-04-15T03:55:54;97837.56;;;21.53;33.01
62164;BME280;48149;51.132;7.178;2023-04-15T03:58:19;97841.78;;;21.32;32.86
62164;BME280;48149;51.132;7.178;2023-04-15T04:00:44;97839.78;;;21.01;33.33
62164;BME280;48149;51.132;7.178;2023-04-15T04:05:34;97842.88;;;20.40;33.91
62164;BME280;48149;51.132;7.178;2023-04-15T04:08:05;97843.41;;;20.23;34.64
62164;BME280;48149;51.132;7.178;2023-04-15T04:10:30;97841.44;;;20.15;34.50
62164;BME280;48149;51.132;7.178;2023-04-15T04:12:55;97849.97;;;20.72;34.39
62164;BME280;48149;51.132;7.178;2023-04-15T04:15:21;97844.63;;;20.86;33.79
62164;BME280;48149;51.132;7.178;2023-04-15T04:17:46;97844.34;;;20.60;33.83
62164;BME280;48149;51.132;7.178;2023-04-15T04:20:11;97843.94;;;19.47;35.49
62164;BME280;48149;51.132;7.178;2023-04-15T04:22:39;97848.44;;;18.67;37.31
62164;BME280;48149;51.132;7.178;2023-04-15T04:25:05;97846.69;;;19.37;36.64
62164;BME280;48149;51.132;7.178;2023-04-15T04:27:32;97840.47;;;18.43;37.25
62164;BME280;48149;51.132;7.178;2023-04-15T04:29:57;97845.28;;;18.65;37.61
62164;BME280;48149;51.132;7.178;2023-04-15T04:32:22;97853.75;;;18.15;38.30
62164;BME280;48149;51.132;7.178;2023-04-15T04:34:48;97848.78;;;18.60;38.82
62164;BME280;48149;51.132;7.178;2023-04-15T04:37:13;97854.38;;;18.59;38.22
62164;BME280;48149;51.132;7.178;2023-04-15T04:39:38;97862.56;;;18.34;39.44
62164;BME280;48149;51.132;7.178;2023-04-15T04:42:04;97854.13;;;18.55;38.74
62164;BME280;48149;51.132;7.178;2023-04-15T04:44:29;97865.00;;;18.54;38.15
62164;BME280;48149;51.132;7.178;2023-04-15T04:46:55;97863.25;;;18.16;38.88
62164;BME280;48149;51.132;7.178;2023-04-15T04:49:20;97871.25;;;18.10;39.77
62164;BME280;48149;51.132;7.178;2023-04-15T04:51:45;97868.78;;;17.62;39.88
62164;BME280;48149;51.132;7.178;2023-04-15T04:54:12;97873.81;;;17.92;39.56
62164;BME280;48149;51.132;7.178;2023-04-15T04:56:37;97873.50;;;17.98;39.71
62164;BME280;48149;51.132;7.178;2023-04-15T04:59:03;97882.81;;;17.57;40.20
62164;BME280;48149;51.132;7.178;2023-04-15T05:01:29;97880.75;;;17.49;40.41
62164;BME280;48149;51.132;7.178;2023-04-15T05:03:54;97876.53;;;17.87;40.09
62164;BME280;48149;51.132;7.178;2023-04-15T05:06:20;97880.84;;;17.73;39.79
62164;BME280;48149;51.132;7.178;2023-04-15T05:08:45;97883.13;;;17.84;40.25
62164;BME280;48149;51.132;7.178;2023-04-15T05:11:11;97876.28;;;17.83;40.67
62164;BME280;48149;51.132;7.178;2023-04-15T05:13:37;97887.00;;;18.26;39.62
62164;BME280;48149;51.132;7.178;2023-04-15T05:16:03;97886.06;;;17.83;40.02
62164;BME280;48149;51.132;7.178;2023-04-15T05:18:29;97895.41;;;18.09;40.21
62164;BME280;48149;51.132;7.178;2023-04-15T05:20:54;97892.38;;;17.48;40.70
62164;BME280;48149;51.132;7.178;2023-04-15T05:23:19;97889.78;;;18.39;39.71
62164;BME280;48149;51.132;7.178;2023-04-15T05:25:45;97896.16;;;18.09;40.19
62164;BME280;48149;51.132;7.178;2023-04-15T05:28:10;97893.00;;;18.65;39.58
62164;BME280;48149;51.132;7.178;2023-04-15T05:30:36;97893.09;;;18.79;39.63
62164;BME280;48149;51.132;7.178;2023-04-15T05:33:01;97896.97;;;18.10;40.33
62164;BME280;48149;51.132;7.178;2023-04-15T05:35:27;97896.53;;;18.79;40.15
62164;BME280;48149;51.132;7.178;2023-04-15T05:37:52;97907.31;;;18.06;40.38
62164;BME280;48149;51.132;7.178;2023-04-15T05:40:18;97909.31;;;17.91;41.10
62164;BME280;48149;51.132;7.178;2023-04-15T05:42:44;97913.31;;;18.46;40.53
62164;BME280;48149;51.132;7.178;2023-04-15T05:45:09;97913.81;;;17.90;40.90
62164;BME280;48149;51.132;7.178;2023-04-15T05:47:35;97912.34;;;19.32;39.46
62164;BME280;48149;51.132;7.178;2023-04-15T05:50:01;97922.16;;;20.19;38.42
62164;BME280;48149;51.132;7.178;2023-04-15T05:52:27;97924.72;;;19.36;38.16
62164;BME280;48149;51.132;7.178;2023-04-15T05:54:52;97931.81;;;18.56;40.05
62164;BME280;48149;51.132;7.178;2023-04-15T05:57:17;97936.72;;;18.68;39.88
62164;BME280;48149;51.132;7.178;2023-04-15T05:59:42;97934.38;;;19.51;39.97
62164;BME280;48149;51.132;7.178;2023-04-15T06:02:08;97929.66;;;19.05;39.74
62164;BME280;48149;51.132;7.178;2023-04-15T06:04:34;97939.09;;;20.23;38.18
62164;BME280;48149;51.132;7.178;2023-04-15T06:06:59;97942.53;;;19.73;38.36
62164;BME280;48149;51.132;7.178;2023-04-15T06:09:24;97945.16;;;19.59;38.60
62164;BME280;48149;51.132;7.178;2023-04-15T06:11:50;97951.91;;;20.21;38.10
62164;BME280;48149;51.132;7.178;2023-04-15T06:14:15;97947.19;;;20.00;38.72
62164;BME280;48149;51.132;7.178;2023-04-15T06:16:40;97945.44;;;20.28;39.25
62164;BME280;48149;51.132;7.178;2023-04-15T06:19:06;97948.66;;;20.84;38.27
62164;BME280;48149;51.132;7.178;2023-04-15T06:21:31;97951.25;;;20.75;38.76
62164;BME280;48149;51.132;7.178;2023-04-15T06:23:57;97958.38;;;21.21;37.75
62164;BME280;48149;51.132;7.178;2023-04-15T06:26:22;97959.94;;;20.49;39.04
62164;BME280;48149;51.132;7.178;2023-04-15T06:28:48;97956.19;;;20.17;39.01
62164;BME280;48149;51.132;7.178;2023-04-15T06:31:13;97960.19;;;19.83;39.90
62164;BME280;48149;51.132;7.178;2023-04-15T06:33:38;97951.66;;;20.04;39.30
62164;BME280;48149;51.132;7.178;2023-04-15T06:36:03;97963.81;;;19.92;40.02
62164;BME280;48149;51.132;7.178;2023-04-15T06:38:29;97967.28;;;20.06;40.14
62164;BME280;48149;51.132;7.178;2023-04-15T06:40:54;97968.56;;;20.59;39.54
62164;BME280;48149;51.132;7.178;2023-04-15T06:43:19;97969.75;;;20.67;38.49
62164;BME280;48149;51.132;7.178;2023-04-15T06:45:45;97969.75;;;20.81;39.38
62164;BME280;48149;51.132;7.178;2023-04-15T06:48:10;97971.16;;;21.33;38.99
62164;BME280;48149;51.132;7.178;2023-04-15T06:50:36;97983.25;;;20.84;38.63
62164;BME280;48149;51.132;7.178;2023-04-15T06:53:01;97978.81;;;20.34;38.81
62164;BME280;48149;51.132;7.178;2023-04-15T06:55:27;97983.94;;;20.11;39.72
62164;BME280;48149;51.132;7.178;2023-04-15T06:57:52;97984.84;;;20.39;38.77
62164;BME280;48149;51.132;7.178;2023-04-15T07:00:17;97986.38;;;20.27;38.45
62164;BME280;48149;51.132;7.178;2023-04-15T07:02:43;97989.44;;;20.66;38.38
62164;BME280;48149;51.132;7.178;2023-04-15T07:05:08;97991.72;;;21.68;37.59
62164;BME280;48149;51.132;7.178;2023-04-15T07:07:34;98000.94;;;20.48;37.85
62164;BME280;48149;51.132;7.178;2023-04-15T07:10:00;98006.81;;;22.08;36.14
62164;BME280;48149;51.132;7.178;2023-04-15T07:12:26;98004.09;;;21.09;37.26
62164;BME280;48149;51.132;7.178;2023-04-15T07:14:51;97999.38;;;21.34;36.19
62164;BME280;48149;51.132;7.178;2023-04-15T07:17:16;98008.31;;;20.83;36.69
62164;BME280;48149;51.132;7.178;2023-04-15T07:19:42;98004.81;;;20.04;39.00
62164;BME280;48149;51.132;7.178;2023-04-15T07:22:07;98019.28;;;20.31;39.21
62164;BME280;48149;51.132;7.178;2023-04-15T07:24:32;98013.75;;;20.08;39.18
62164;BME280;48149;51.132;7.178;2023-04-15T07:26:58;98014.94;;;21.26;38.40
62164;BME280;48149;51.132;7.178;2023-04-15T07:29:23;98018.97;;;21.38;37.21
62164;BME280;48149;51.132;7.178;2023-04-15T07:31:48;98024.44;;;21.82;37.33
62164;BME280;48149;51.132;7.178;2023-04-15T07:34:14;98022.53;;;21.33;37.38
62164;BME280;48149;51.132;7.178;2023-04-15T07:36:39;98030.63;;;21.28;38.03
62164;BME280;48149;51.132;7.178;2023-04-15T07:39:04;98028.59;;;21.74;37.71
62164;BME280;48149;51.132;7.178;2023-04-15T07:41:29;98030.69;;;21.50;37.78
62164;BME280;48149;51.132;7.178;2023-04-15T07:43:55;98035.38;;;22.30;36.38
62164;BME280;48149;51.132;7.178;2023-04-15T07:46:21;98040.19;;;20.37;38.32
62164;BME280;48149;51.132;7.178;2023-04-15T07:48:48;98040.53;;;20.95;38.44
62164;BME280;48149;51.132;7.178;2023-04-15T07:51:13;98036.44;;;21.30;37.76
62164;BME280;48149;51.132;7.178;2023-04-15T07:53:38;98047.88;;;22.07;36.28
62164;BME280;48149;51.132;7.178;2023-04-15T07:56:04;98043.41;;;22.83;35.67
62164;BME280;48149;51.132;7.178;2023-04-15T07:58:29;98039.47;;;23.51;34.52
62164;BME280;48149;51.132;7.178;2023-04-15T08:00:55;98048.84;;;23.00;35.11
62164;BME280;48149;51.132;7.178;2023-04-15T08:03:20;98050.75;;;22.11;36.13
62164;BME280;48149;51.132;7.178;2023-04-15T08:05:46;98055.22;;;23.21;34.40
62164;BME280;48149;51.132;7.178;2023-04-15T08:08:11;98062.75;;;22.89;34.89
62164;BME280;48149;51.132;7.178;2023-04-15T08:10:36;98061.72;;;23.37;34.15
62164;BME280;48149;51.132;7.178;2023-04-15T08:13:02;98053.69;;;20.22;37.54
62164;BME280;48149;51.132;7.178;2023-04-15T08:15:27;98060.88;;;21.59;37.12
62164;BME280;48149;51.132;7.178;2023-04-15T08:17:52;98056.31;;;23.60;33.39
62164;BME280;48149;51.132;7.178;2023-04-15T08:20:18;98065.63;;;21.90;33.90
62164;BME280;48149;51.132;7.178;2023-04-15T08:22:43;98062.59;;;19.51;39.08
62164;BME280;48149;51.132;7.178;2023-04-15T08:25:09;98071.50;;;20.03;39.80
62164;BME280;48149;51.132;7.178;2023-04-15T08:27:34;98067.69;;;20.09;39.16
62164;BME280;48149;51.132;7.178;2023-04-15T08:30:00;98064.84;;;21.48;37.27
62164;BME280;48149;51.132;7.178;2023-04-15T08:32:25;98068.16;;;19.74;38.82
62164;BME280;48149;51.132;7.178;2023-04-15T08:34:51;98074.44;;;22.12;37.69
62164;BME280;48149;51.132;7.178;2023-04-15T08:37:17;98079.41;;;23.56;35.76
62164;BME280;48149;51.132;7.178;2023-04-15T08:39:42;98082.59;;;23.35;34.02
62164;BME280;48149;51.132;7.178;2023-04-15T08:42:15;98083.50;;;22.92;34.75
62164;BME280;48149;51.132;7.178;2023-04-15T08:44:41;98092.34;;;23.31;33.90
62164;BME280;48149;51.132;7.178;2023-04-15T08:47:06;98095.22;;;21.34;36.12
62164;BME280;48149;51.132;7.178;2023-04-15T08:49:32;98093.13;;;22.34;37.11
62164;BME280;48149;51.132;7.178;2023-04-15T08:51:59;98092.81;;;22.00;35.71
62164;BME280;48149;51.132;7.178;2023-04-15T08:54:25;98090.66;;;22.02;37.16
62164;BME280;48149;51.132;7.178;2023-04-15T08:56:51;98094.03;;;21.67;36.90
62164;BME280;48149;51.132;7.178;2023-04-15T08:59:16;98095.78;;;23.01;33.62
62164;BME280;48149;51.132;7.178;2023-04-15T09:01:42;98094.94;;;24.62;32.64
62164;BME280;48149;51.132;7.178;2023-04-15T09:04:07;98102.91;;;25.13;31.22
62164;BME280;48149;51.132;7.178;2023-04-15T09:06:33;98098.25;;;24.24;32.67
62164;BME280;48149;51.132;7.178;2023-04-15T09:08:58;98096.03;;;25.79;30.61
62164;BME280;48149;51.132;7.178;2023-04-15T09:11:23;98106.19;;;25.27;30.79
62164;BME280;48149;51.132;7.178;2023-04-15T09:13:49;98102.47;;;23.12;33.21
62164;BME280;48149;51.132;7.178;2023-04-15T09:16:15;98106.06;;;21.92;35.14
62164;BME280;48149;51.132;7.178;2023-04-15T09:18:41;98106.56;;;23.41;33.74
62164;BME280;48149;51.132;7.178;2023-04-15T09:21:09;98104.03;;;24.09;33.59
62164;BME280;48149;51.132;7.178;2023-04-15T09:23:35;98104.78;;;23.75;33.10
62164;BME280;48149;51.132;7.178;2023-04-15T09:26:01;98113.84;;;24.31;32.39
62164;BME280;48149;51.132;7.178;2023-04-15T09:28:27;98119.13;;;23.49;34.18
62164;BME280;48149;51.132;7.178;2023-04-15T09:30:56;98121.03;;;25.92;30.59
62164;BME280;48149;51.132;7.178;2023-04-15T09:33:22;98117.72;;;27.80;29.02
62164;BME280;48149;51.132;7.178;2023-04-15T09:38:22;98132.53;;;27.17;30.50
62164;BME280;48149;51.132;7.178;2023-04-15T09:40:47;98140.59;;;22.46;34.30
62164;BME280;48149;51.132;7.178;2023-04-15T09:45:46;98140.66;;;26.75;30.20
62164;BME280;48149;51.132;7.178;2023-04-15T09:48:15;98145.28;;;27.20;28.13
62164;BME280;48149;51.132;7.178;2023-04-15T09:50:41;98145.72;;;21.66;34.85
62164;BME280;48149;51.132;7.178;2023-04-15T09:55:34;98149.75;;;24.73;32.85
62164;BME280;48149;51.132;7.178;2023-04-15T09:57:59;98161.25;;;23.43;32.98
62164;BME280;48149;51.132;7.178;2023-04-15T10:00:25;98164.25;;;22.97;34.65
62164;BME280;48149;51.132;7.178;2023-04-15T10:02:50;98164.66;;;21.51;36.23
62164;BME280;48149;51.132;7.178;2023-04-15T10:05:15;98156.50;;;21.15;37.95
62164;BME280;48149;51.132;7.178;2023-04-15T10:07:41;98167.78;;;21.07;37.97
62164;BME280;48149;51.132;7.178;2023-04-15T10:10:07;98166.47;;;22.59;36.69
62164;BME280;48149;51.132;7.178;2023-04-15T10:12:33;98172.78;;;23.61;35.08
62164;BME280;48149;51.132;7.178;2023-04-15T10:15:02;98182.94;;;24.46;35.23
62164;BME280;48149;51.132;7.178;2023-04-15T10:17:29;98169.56;;;23.81;32.65
62164;BME280;48149;51.132;7.178;2023-04-15T10:19:58;98174.94;;;22.75;34.50
62164;BME280;48149;51.132;7.178;2023-04-15T10:22:24;98180.66;;;21.64;37.31
62164;BME280;48149;51.132;7.178;2023-04-15T10:24:51;98178.88;;;20.20;40.60
62164;BME280;48149;51.132;7.178;2023-04-15T10:27:16;98181.25;;;22.16;37.80
62164;BME280;48149;51.132;7.178;2023-04-15T10:29:42;98179.44;;;20.17;40.77
62164;BME280;48149;51.132;7.178;2023-04-15T10:32:08;98172.00;;;18.91;42.87
62164;BME280;48149;51.132;7.178;2023-04-15T10:34:33;98182.09;;;20.60;39.01
62164;BME280;48149;51.132;7.178;2023-04-15T10:37:02;98190.84;;;23.33;37.27
62164;BME280;48149;51.132;7.178;2023-04-15T10:39:41;98196.59;;;21.37;38.93
62164;BME280;48149;51.132;7.178;2023-04-15T10:42:17;98191.00;;;21.66;36.67
62164;BME280;48149;51.132;7.178;2023-04-15T10:44:44;98200.03;;;23.41;36.62
62164;BME280;48149;51.132;7.178;2023-04-15T10:47:16;98193.00;;;20.77;40.22
62164;BME280;48149;51.132;7.178;2023-04-15T10:49:43;98201.06;;;21.09;40.26
62164;BME280;48149;51.132;7.178;2023-04-15T10:52:09;98200.19;;;19.97;40.67
62164;BME280;48149;51.132;7.178;2023-04-15T10:54:34;98210.25;;;19.13;44.95
62164;BME280;48149;51.132;7.178;2023-04-15T10:59:28;98217.03;;;19.87;43.24
62164;BME280;48149;51.132;7.178;2023-04-15T11:01:54;98206.09;;;20.92;40.59
62164;BME280;48149;51.132;7.178;2023-04-15T11:07:08;98218.16;;;21.03;42.16
62164;BME280;48149;51.132;7.178;2023-04-15T11:09:33;98212.41;;;19.98;41.96
62164;BME280;48149;51.132;7.178;2023-04-15T11:12:08;98220.00;;;20.70;41.55
62164;BME280;48149;51.132;7.178;2023-04-15T11:14:35;98217.78;;;21.28;40.78
62164;BME280;48149;51.132;7.178;2023-04-15T11:17:03;98211.41;;;20.12;41.82
62164;BME280;48149;51.132;7.178;2023-04-15T11:19:34;98217.00;;;18.57;44.59
62164;BME280;48149;51.132;7.178;2023-04-15T11:22:09;98222.06;;;18.48;46.56
62164;BME280;48149;51.132;7.178;2023-04-15T11:24:35;98219.31;;;23.60;38.05
62164;BME280;48149;51.132;7.178;2023-04-15T11:27:00;98219.38;;;19.89;44.10
62164;BME280;48149;51.132;7.178;2023-04-15T11:29:29;98216.56;;;19.56;43.81
62164;BME280;48149;51.132;7.178;2023-04-15T11:32:08;98228.75;;;21.41;42.18
62164;BME280;48149;51.132;7.178;2023-04-15T11:34:33;98230.81;;;20.13;43.91
62164;BME280;48149;51.132;7.178;2023-04-15T11:37:02;98235.38;;;22.16;40.88
62164;BME280;48149;51.132;7.178;2023-04-15T11:39:28;98235.78;;;19.96;42.99
62164;BME280;48149;51.132;7.178;2023-04-15T11:41:53;98242.94;;;19.43;46.72
62164;BME280;48149;51.132;7.178;2023-04-15T11:44:18;98246.38;;;20.01;44.64
62164;BME280;48149;51.132;7.178;2023-04-15T11:46:44;98256.56;;;19.65;41.65
62164;BME280;48149;51.132;7.178;2023-04-15T11:49:09;98259.19;;;21.99;40.34
62164;BME280;48149;51.132;7.178;2023-04-15T11:51:35;98249.97;;;18.36;46.30
62164;BME280;48149;51.132;7.178;2023-04-15T11:54:00;98264.66;;;19.79;43.36
62164;BME280;48149;51.132;7.178;2023-04-15T11:56:26;98265.50;;;21.57;40.35
62164;BME280;48149;51.132;7.178;2023-04-15T11:58:52;98264.94;;;21.74;41.76
62164;BME280;48149;51.132;7.178;2023-04-15T12:01:17;98265.91;;;21.64;41.02
62164;BME280;48149;51.132;7.178;2023-04-15T12:03:47;98264.47;;;22.54;38.65
62164;BME280;48149;51.132;7.178;2023-04-15T12:06:23;98273.13;;;20.33;41.92
62164;BME280;48149;51.132;7.178;2023-04-15T12:08:59;98273.19;;;18.64;47.72
62164;BME280;48149;51.132;7.178;2023-04-15T12:16:27;98294.84;;;20.16;44.98
62164;BME280;48149;51.132;7.178;2023-04-15T12:18:53;98300.88;;;18.92;48.47
62164;BME280;48149;51.132;7.178;2023-04-15T12:21:23;98298.97;;;18.97;47.51
62164;BME280;48149;51.132;7.178;2023-04-15T12:26:27;98308.16;;;21.85;41.86
62164;BME280;48149;51.132;7.178;2023-04-15T12:29:06;98307.97;;;21.16;42.17
62164;BME280;48149;51.132;7.178;2023-04-15T12:31:32;98320.69;;;19.48;47.04
62164;BME280;48149;51.132;7.178;2023-04-15T12:33:58;98317.56;;;19.75;47.06
62164;BME280;48149;51.132;7.178;2023-04-15T12:36:24;98314.69;;;20.90;45.01
62164;BME280;48149;51.132;7.178;2023-04-15T12:38:49;98321.84;;;21.13;42.86
62164;BME280;48149;51.132;7.178;2023-04-15T12:41:15;98329.59;;;19.29;44.74
62164;BME280;48149;51.132;7.178;2023-04-15T12:43:43;98336.97;;;19.99;45.04
62164;BME280;48149;51.132;7.178;2023-04-15T12:46:08;98337.47;;;20.77;43.43
62164;BME280;48149;51.132;7.178;2023-04-15T12:48:34;98338.00;;;19.41;45.58
62164;BME280;48149;51.132;7.178;2023-04-15T12:50:59;98345.34;;;21.44;42.39
62164;BME280;48149;51.132;7.178;2023-04-15T12:53:25;98354.88;;;20.17;44.66
62164;BME280;48149;51.132;7.178;2023-04-15T12:55:50;98345.81;;;18.68;45.82
62164;BME280;48149;51.132;7.178;2023-04-15T12:58:15;98356.47;;;20.18;45.82
62164;BME280;48149;51.132;7.178;2023-04-15T13:00:41;98359.59;;;18.75;48.69
62164;BME280;48149;51.132;7.178;2023-04-15T13:05:34;98370.81;;;20.17;47.23
62164;BME280;48149;51.132;7.178;2023-04-15T13:08:01;98368.88;;;19.99;47.67
62164;BME280;48149;51.132;7.178;2023-04-15T13:10:26;98368.56;;;20.35;44.89
62164;BME280;48149;51.132;7.178;2023-04-15T13:12:52;98374.63;;;19.39;44.57
62164;BME280;48149;51.132;7.178;2023-04-15T13:15:18;98375.56;;;20.20;46.73
62164;BME280;48149;51.132;7.178;2023-04-15T13:17:44;98378.13;;;20.36;46.48
62164;BME280;48149;51.132;7.178;2023-04-15T13:20:10;98378.47;;;18.53;52.45
62164;BME280;48149;51.132;7.178;2023-04-15T13:22:35;98394.06;;;20.59;46.35